Terminal Aerodrome Forecast
Issued by NWS

Current Version | Previous Version | Graphics & Text | Print | Product List | Glossary On
Versions: 1 2 3 4 5 6 7 8 9 10 11 12 13 14 15 16 17 18 19 20 21 22
000
FTUS41 KRLX 202300
TAFCKB
TAF
KCKB 202339Z 2100/2124 26007KT P6SM SCT040
     FM210200 27008KT P6SM BKN035
     FM210300 27008KT P6SM BKN025
     FM211600 28005KT P6SM BKN035
     FM211700 28005KT P6SM SCT040
     FM212300 VRB03KT P6SM SCT250=

USA.gov is the U.S. government's official web portal to all federal, state and local government web resources and services.